Time;durP1;ratioP1;P1;durP2;ratioP2;P2;SDS_P1;SDS_P2;PMS_P1;PMS_P2;Temp;Humidity;BMP_temperature;BMP_pressure;BME280_temperature;BME280_humidity;BME280_pressure;Samples;Min_cycle;Max_cycle;Signal;HPM_P1;HPM_P2
2023/04/19 00:00:31;;;;;;;9.35;6.95;;;;;;;;;;5053682;28;20094;-73
2023/04/19 00:02:57;;;;;;;9.43;6.50;;;;;;;;;;5051695;28;20448;-73
2023/04/19 00:05:23;;;;;;;9.60;6.57;;;;;;;;;;5053903;28;20132;-73
2023/04/19 00:07:50;;;;;;;10.82;7.10;;;;;;;;;;5052877;28;20091;-74
2023/04/19 00:10:16;;;;;;;9.98;7.13;;;;;;;;;;5052327;28;20072;-73
2023/04/19 00:12:42;;;;;;;11.05;6.75;;;;;;;;;;5053951;28;20568;-73
2023/04/19 00:15:08;;;;;;;11.48;7.07;;;;;;;;;;5052915;28;20048;-73
2023/04/19 00:17:34;;;;;;;9.90;6.47;;;;;;;;;;5054251;28;20191;-72
2023/04/19 00:20:00;;;;;;;9.18;6.68;;;;;;;;;;5052483;28;20045;-74
2023/04/19 00:22:26;;;;;;;14.02;7.07;;;;;;;;;;5053964;28;20041;-73
2023/04/19 00:24:53;;;;;;;9.93;6.85;;;;;;;;;;5033691;28;20501;-73
2023/04/19 00:27:19;;;;;;;10.48;7.30;;;;;;;;;;5034337;28;20395;-73
2023/04/19 00:29:45;;;;;;;11.45;7.20;;;;;;;;;;5048874;28;20492;-73
2023/04/19 00:32:11;;;;;;;11.30;6.95;;;;;;;;;;5053605;28;20059;-73
2023/04/19 00:34:37;;;;;;;9.77;7.80;;;;;;;;;;5053635;28;20053;-73
2023/04/19 00:37:04;;;;;;;12.82;7.40;;;;;;;;;;5053886;28;20045;-73
2023/04/19 00:39:30;;;;;;;11.23;7.55;;;;;;;;;;5049914;28;20056;-73
2023/04/19 00:41:56;;;;;;;11.77;7.57;;;;;;;;;;5031115;28;20088;-73
2023/04/19 00:44:22;;;;;;;9.65;6.97;;;;;;;;;;5051681;28;20520;-73
2023/04/19 00:46:49;;;;;;;11.77;7.88;;;;;;;;;;5052889;28;20041;-73
2023/04/19 00:49:15;;;;;;;10.48;7.53;;;;;;;;;;5034549;28;20048;-74
2023/04/19 00:51:42;;;;;;;10.63;7.68;;;;;;;;;;5052818;28;20489;-74
2023/04/19 00:54:08;;;;;;;11.43;7.80;;;;;;;;;;5052819;28;20122;-74
2023/04/19 00:56:34;;;;;;;11.75;8.05;;;;;;;;;;5052065;28;20417;-74
2023/04/19 00:59:01;;;;;;;12.55;8.30;;;;;;;;;;5029426;28;20083;-75
2023/04/19 01:01:28;;;;;;;11.90;7.57;;;;;;;;;;5042203;28;20094;-75
2023/04/19 01:03:54;;;;;;;12.40;8.20;;;;;;;;;;5052236;28;20186;-74
2023/04/19 01:06:20;;;;;;;15.25;8.63;;;;;;;;;;5052677;28;20049;-74
2023/04/19 01:08:46;;;;;;;12.82;8.30;;;;;;;;;;5056473;28;20123;-74
2023/04/19 01:11:13;;;;;;;11.32;8.70;;;;;;;;;;5054341;28;20157;-74
2023/04/19 01:13:39;;;;;;;11.02;8.43;;;;;;;;;;5046630;28;20036;-73
2023/04/19 01:16:06;;;;;;;10.60;8.38;;;;;;;;;;5031716;28;20049;-74
2023/04/19 01:18:36;;;;;;;10.75;8.60;;;;;;;;;;5018624;28;20048;-74
2023/04/19 01:21:02;;;;;;;11.35;8.32;;;;;;;;;;5033740;28;20044;-74
2023/04/19 01:23:28;;;;;;;11.85;8.68;;;;;;;;;;5035433;28;20084;-74
2023/04/19 01:25:54;;;;;;;14.43;8.55;;;;;;;;;;5052686;28;20465;-74
2023/04/19 01:28:20;;;;;;;14.02;9.00;;;;;;;;;;5051841;28;20468;-74
2023/04/19 01:30:49;;;;;;;12.65;8.55;;;;;;;;;;5034772;28;20061;-74
2023/04/19 01:33:15;;;;;;;13.95;9.48;;;;;;;;;;5044618;28;20405;-74
2023/04/19 01:35:41;;;;;;;14.57;9.43;;;;;;;;;;5018346;28;20123;-74
2023/04/19 01:38:07;;;;;;;14.57;9.40;;;;;;;;;;5034995;28;20092;-74
2023/04/19 01:40:33;;;;;;;13.65;9.10;;;;;;;;;;5052134;28;20041;-74
2023/04/19 01:42:59;;;;;;;13.27;9.20;;;;;;;;;;5053149;28;20060;-74
2023/04/19 01:45:25;;;;;;;14.25;9.55;;;;;;;;;;5052489;28;20037;-74
2023/04/19 01:47:51;;;;;;;15.05;9.70;;;;;;;;;;5052720;28;20048;-74
2023/04/19 01:50:18;;;;;;;13.85;9.50;;;;;;;;;;5051576;28;20197;-73
2023/04/19 01:52:44;;;;;;;14.02;9.38;;;;;;;;;;5052364;28;20037;-74
2023/04/19 01:55:10;;;;;;;13.68;9.15;;;;;;;;;;5033548;28;20041;-73
2023/04/19 01:57:36;;;;;;;13.25;9.60;;;;;;;;;;5017887;28;20049;-74
2023/04/19 02:00:02;;;;;;;12.68;9.18;;;;;;;;;;5051630;28;20405;-74
2023/04/19 02:02:28;;;;;;;12.43;9.25;;;;;;;;;;5051852;28;20084;-73
2023/04/19 02:04:54;;;;;;;13.27;8.75;;;;;;;;;;5050223;28;20141;-73
2023/04/19 02:07:20;;;;;;;12.52;9.25;;;;;;;;;;5034353;28;20105;-74
2023/04/19 02:09:47;;;;;;;14.35;8.40;;;;;;;;;;5051378;28;20118;-74
2023/04/19 02:12:13;;;;;;;15.63;8.48;;;;;;;;;;5017800;28;20045;-74
2023/04/19 02:14:39;;;;;;;14.35;9.38;;;;;;;;;;5033514;28;20091;-74
2023/04/19 02:17:05;;;;;;;10.35;8.18;;;;;;;;;;5033832;28;20493;-74
2023/04/19 02:19:31;;;;;;;11.13;8.10;;;;;;;;;;5051746;28;20080;-74
2023/04/19 02:21:57;;;;;;;11.98;7.45;;;;;;;;;;5051684;28;20080;-73
2023/04/19 02:24:24;;;;;;;11.38;7.93;;;;;;;;;;5017396;28;20036;-74
2023/04/19 02:26:50;;;;;;;13.23;7.80;;;;;;;;;;5036634;28;20049;-74
2023/04/19 02:29:16;;;;;;;11.23;7.57;;;;;;;;;;5037359;28;20091;-74
2023/04/19 02:31:44;;;;;;;14.07;7.45;;;;;;;;;;5055867;28;20056;-74
2023/04/19 02:34:10;;;;;;;12.05;7.00;;;;;;;;;;5037760;28;20041;-73
2023/04/19 02:36:36;;;;;;;9.77;6.60;;;;;;;;;;5056352;28;20128;-73
2023/04/19 02:39:02;;;;;;;9.75;6.80;;;;;;;;;;5054971;28;20056;-73
2023/04/19 02:41:28;;;;;;;10.55;7.03;;;;;;;;;;5055479;28;20065;-73
2023/04/19 02:43:55;;;;;;;10.20;6.68;;;;;;;;;;5034996;28;20386;-73
2023/04/19 02:46:21;;;;;;;10.23;6.55;;;;;;;;;;5054428;28;20052;-74
2023/04/19 02:48:47;;;;;;;9.98;6.75;;;;;;;;;;5055739;28;20044;-73
2023/04/19 02:51:16;;;;;;;10.40;7.07;;;;;;;;;;5055274;28;20166;-73
2023/04/19 02:53:42;;;;;;;11.23;6.57;;;;;;;;;;5054827;28;20041;-74
2023/04/19 02:56:09;;;;;;;10.00;6.95;;;;;;;;;;5055272;28;20060;-73
2023/04/19 02:58:34;;;;;;;10.07;7.15;;;;;;;;;;5055309;28;20041;-74
2023/04/19 03:01:01;;;;;;;8.60;6.47;;;;;;;;;;5054914;28;20156;-73
2023/04/19 03:03:27;;;;;;;9.40;6.38;;;;;;;;;;5037263;28;20047;-73
2023/04/19 03:05:53;;;;;;;9.73;6.55;;;;;;;;;;5054503;28;20045;-73
2023/04/19 03:08:19;;;;;;;10.50;6.70;;;;;;;;;;5037361;28;20098;-73
2023/04/19 03:10:45;;;;;;;13.20;6.63;;;;;;;;;;5054976;28;20103;-72
2023/04/19 03:13:11;;;;;;;10.25;7.00;;;;;;;;;;5053404;28;20057;-73
2023/04/19 03:15:37;;;;;;;10.90;6.18;;;;;;;;;;5036944;28;20044;-73
2023/04/19 03:18:03;;;;;;;9.50;6.68;;;;;;;;;;5055641;28;20049;-73
2023/04/19 03:20:29;;;;;;;10.80;6.57;;;;;;;;;;5036882;28;20041;-72
2023/04/19 03:22:55;;;;;;;8.88;6.43;;;;;;;;;;5037451;28;20136;-72
2023/04/19 03:25:21;;;;;;;8.55;6.25;;;;;;;;;;5053466;28;20041;-72
2023/04/19 03:27:48;;;;;;;11.00;6.40;;;;;;;;;;5055024;28;20489;-72
2023/04/19 03:30:14;;;;;;;9.90;6.55;;;;;;;;;;5036631;28;20041;-73
2023/04/19 03:32:40;;;;;;;10.05;6.10;;;;;;;;;;5048739;28;20081;-72
2023/04/19 03:35:06;;;;;;;8.25;5.90;;;;;;;;;;5029242;28;20060;-72
2023/04/19 03:37:33;;;;;;;8.57;6.38;;;;;;;;;;5045783;28;20124;-72
2023/04/19 03:39:59;;;;;;;8.63;6.13;;;;;;;;;;5054466;28;20052;-72
2023/04/19 03:42:25;;;;;;;8.43;6.22;;;;;;;;;;5054660;28;20051;-72
2023/04/19 03:44:51;;;;;;;9.45;6.50;;;;;;;;;;5054676;28;20044;-72
2023/04/19 03:47:17;;;;;;;9.38;6.35;;;;;;;;;;5054741;28;20090;-73
2023/04/19 03:49:43;;;;;;;12.52;6.32;;;;;;;;;;5054351;28;20397;-72
2023/04/19 03:52:09;;;;;;;8.77;6.30;;;;;;;;;;5036302;28;20490;-72
2023/04/19 03:54:35;;;;;;;11.40;6.20;;;;;;;;;;5035640;28;20041;-72
2023/04/19 03:57:01;;;;;;;11.02;6.38;;;;;;;;;;5054503;28;20114;-73
2023/04/19 03:59:27;;;;;;;8.82;5.78;;;;;;;;;;5054257;28;20044;-72
2023/04/19 04:01:53;;;;;;;9.32;6.43;;;;;;;;;;5053800;28;20052;-72
2023/04/19 04:04:19;;;;;;;12.55;6.05;;;;;;;;;;5035527;28;20508;-72
2023/04/19 04:06:45;;;;;;;9.93;6.57;;;;;;;;;;5038170;28;20049;-72
2023/04/19 04:09:11;;;;;;;10.45;6.28;;;;;;;;;;5057160;28;20041;-72
2023/04/19 04:11:37;;;;;;;10.30;6.10;;;;;;;;;;5054003;28;20049;-72
2023/04/19 04:14:03;;;;;;;9.40;5.88;;;;;;;;;;5035079;28;20033;-72
2023/04/19 04:16:29;;;;;;;9.63;5.70;;;;;;;;;;5036479;28;20571;-72
2023/04/19 04:18:55;;;;;;;9.95;5.38;;;;;;;;;;5035385;28;20127;-72
2023/04/19 04:21:23;;;;;;;8.57;5.80;;;;;;;;;;5034915;28;20472;-72
2023/04/19 04:23:49;;;;;;;8.80;5.75;;;;;;;;;;5036075;28;20085;-72
2023/04/19 04:26:15;;;;;;;8.18;5.60;;;;;;;;;;5034426;28;20211;-73
2023/04/19 04:28:41;;;;;;;9.43;5.70;;;;;;;;;;5053315;28;20044;-73
2023/04/19 04:31:08;;;;;;;8.68;5.47;;;;;;;;;;5052922;28;20049;-73
2023/04/19 04:33:34;;;;;;;8.73;6.03;;;;;;;;;;5053725;28;20395;-73
2023/04/19 04:36:01;;;;;;;9.35;5.63;;;;;;;;;;5034694;28;20036;-73
2023/04/19 04:38:28;;;;;;;8.98;5.70;;;;;;;;;;5053980;28;20064;-74
2023/04/19 04:40:55;;;;;;;10.48;5.43;;;;;;;;;;5034984;28;20466;-73
2023/04/19 04:43:22;;;;;;;9.07;5.50;;;;;;;;;;5035560;28;20106;-73
2023/04/19 04:45:49;;;;;;;12.30;5.20;;;;;;;;;;5053294;28;20049;-73
2023/04/19 04:48:15;;;;;;;10.13;5.63;;;;;;;;;;5034180;28;20131;-72
2023/04/19 04:50:41;;;;;;;8.63;5.40;;;;;;;;;;5034880;28;20106;-73
2023/04/19 04:53:08;;;;;;;9.48;5.15;;;;;;;;;;5032279;28;20091;-73
2023/04/19 04:55:35;;;;;;;9.10;5.30;;;;;;;;;;5038391;28;20053;-73
2023/04/19 04:58:04;;;;;;;8.32;5.30;;;;;;;;;;5052921;28;20372;-73
2023/04/19 05:00:30;;;;;;;9.15;4.88;;;;;;;;;;5052631;28;20064;-73
2023/04/19 05:02:57;;;;;;;6.28;4.57;;;;;;;;;;5052195;28;20138;-73
2023/04/19 05:05:23;;;;;;;9.15;4.80;;;;;;;;;;5051241;28;20037;-73
2023/04/19 05:07:49;;;;;;;7.70;4.80;;;;;;;;;;5050033;28;20087;-73
2023/04/19 05:10:15;;;;;;;8.43;4.82;;;;;;;;;;5018094;28;20464;-73
2023/04/19 05:12:42;;;;;;;9.05;4.28;;;;;;;;;;5052488;28;20124;-73
2023/04/19 05:15:08;;;;;;;8.25;4.90;;;;;;;;;;5034502;28;20128;-73
2023/04/19 05:17:34;;;;;;;7.38;4.50;;;;;;;;;;5053208;28;20069;-73
2023/04/19 05:20:00;;;;;;;7.68;4.30;;;;;;;;;;5052670;28;20037;-73
2023/04/19 05:22:26;;;;;;;7.47;4.35;;;;;;;;;;5050284;28;20107;-73
2023/04/19 05:24:53;;;;;;;7.20;4.20;;;;;;;;;;5050662;28;20541;-73
2023/04/19 05:27:19;;;;;;;10.30;4.72;;;;;;;;;;5051946;28;20044;-78
2023/04/19 05:29:45;;;;;;;8.55;4.20;;;;;;;;;;5052589;28;20041;-78
2023/04/19 05:32:11;;;;;;;6.10;3.97;;;;;;;;;;5045911;28;20079;-78
2023/04/19 05:34:37;;;;;;;8.27;4.57;;;;;;;;;;5052297;28;20060;-77
2023/04/19 05:37:05;;;;;;;6.85;4.13;;;;;;;;;;5052860;28;20045;-78
2023/04/19 05:39:31;;;;;;;7.47;4.28;;;;;;;;;;5052421;28;20045;-78
2023/04/19 05:41:57;;;;;;;7.88;4.07;;;;;;;;;;5029424;28;20469;-77
2023/04/19 05:44:23;;;;;;;6.72;4.35;;;;;;;;;;5051210;28;20370;-77
2023/04/19 05:46:49;;;;;;;8.45;4.13;;;;;;;;;;5044536;28;20045;-79
2023/04/19 05:49:15;;;;;;;6.45;4.05;;;;;;;;;;5051309;28;20037;-79
2023/04/19 05:51:41;;;;;;;8.02;4.18;;;;;;;;;;5051869;28;20045;-78
2023/04/19 05:54:11;;;;;;;7.55;3.90;;;;;;;;;;5046956;28;20041;-78
2023/04/19 05:56:37;;;;;;;9.07;4.20;;;;;;;;;;5052610;28;20053;-78
2023/04/19 05:59:03;;;;;;;8.43;3.92;;;;;;;;;;5052268;28;20171;-78
2023/04/19 06:01:29;;;;;;;7.15;4.15;;;;;;;;;;5050559;28;20250;-78
2023/04/19 06:03:55;;;;;;;6.45;4.32;;;;;;;;;;5045742;28;20580;-78
2023/04/19 06:06:22;;;;;;;9.48;4.32;;;;;;;;;;5051270;28;20375;-78
2023/04/19 06:08:48;;;;;;;7.45;3.70;;;;;;;;;;5051445;28;20055;-79
2023/04/19 06:11:14;;;;;;;7.25;3.90;;;;;;;;;;5048285;28;20455;-78
2023/04/19 06:13:40;;;;;;;7.47;4.30;;;;;;;;;;5052049;28;20119;-78
2023/04/19 06:16:07;;;;;;;7.07;3.70;;;;;;;;;;5046832;28;20129;-77
2023/04/19 06:18:33;;;;;;;8.30;3.70;;;;;;;;;;5052140;28;20068;-78
2023/04/19 06:20:59;;;;;;;8.63;3.70;;;;;;;;;;5045475;28;20036;-78
2023/04/19 06:23:25;;;;;;;5.82;3.60;;;;;;;;;;5050912;28;20033;-77
2023/04/19 06:25:52;;;;;;;7.80;3.50;;;;;;;;;;5051304;28;20045;-77
2023/04/19 06:28:18;;;;;;;6.90;3.47;;;;;;;;;;5048626;28;20059;-76
2023/04/19 06:30:44;;;;;;;8.85;3.63;;;;;;;;;;5051380;28;20098;-76
2023/04/19 06:33:11;;;;;;;5.97;3.67;;;;;;;;;;5047617;28;20448;-76
2023/04/19 06:35:37;;;;;;;5.47;3.40;;;;;;;;;;5049511;28;20041;-76
2023/04/19 06:38:03;;;;;;;6.57;3.63;;;;;;;;;;5045364;28;20144;-76
2023/04/19 06:40:29;;;;;;;6.53;3.80;;;;;;;;;;5051439;28;20080;-77
2023/04/19 06:42:55;;;;;;;7.05;3.60;;;;;;;;;;5051085;28;20088;-78
2023/04/19 06:45:21;;;;;;;5.97;3.75;;;;;;;;;;5051166;28;20045;-79
2023/04/19 06:47:47;;;;;;;5.22;3.33;;;;;;;;;;5051398;28;20072;-78
2023/04/19 06:50:13;;;;;;;6.10;3.55;;;;;;;;;;5050665;28;20083;-78
2023/04/19 06:52:39;;;;;;;7.30;3.60;;;;;;;;;;5051984;28;20051;-77
2023/04/19 06:55:06;;;;;;;4.90;3.13;;;;;;;;;;5051298;28;20041;-78
2023/04/19 06:57:32;;;;;;;5.68;3.40;;;;;;;;;;5042084;28;20052;-77
2023/04/19 06:59:59;;;;;;;4.63;2.97;;;;;;;;;;5051363;28;20040;-77
2023/04/19 07:02:25;;;;;;;6.03;3.20;;;;;;;;;;5053221;28;20378;-77
2023/04/19 07:04:51;;;;;;;6.63;3.05;;;;;;;;;;5053028;28;20482;-78
2023/04/19 07:07:17;;;;;;;6.93;3.20;;;;;;;;;;5032011;28;20045;-78
2023/04/19 07:09:43;;;;;;;4.63;2.80;;;;;;;;;;5027283;28;20037;-79
2023/04/19 07:12:09;;;;;;;6.60;2.90;;;;;;;;;;5035567;28;20078;-79
2023/04/19 07:14:35;;;;;;;8.73;2.97;;;;;;;;;;5055021;28;20047;-79
2023/04/19 07:17:03;;;;;;;5.90;2.90;;;;;;;;;;5049376;28;20049;-80
2023/04/19 07:19:30;;;;;;;6.90;2.70;;;;;;;;;;5053544;28;20474;-77
2023/04/19 07:21:56;;;;;;;6.22;2.70;;;;;;;;;;5048436;28;20053;-78
2023/04/19 07:24:22;;;;;;;4.40;2.40;;;;;;;;;;5054862;28;20045;-78
2023/04/19 07:26:48;;;;;;;5.55;2.60;;;;;;;;;;5055315;28;20099;-77
2023/04/19 07:29:14;;;;;;;4.53;2.50;;;;;;;;;;5051048;28;20052;-78
2023/04/19 07:31:40;;;;;;;4.10;2.50;;;;;;;;;;5052466;28;20080;-78
2023/04/19 07:34:07;;;;;;;4.50;2.40;;;;;;;;;;5036235;28;20041;-79
2023/04/19 07:36:34;;;;;;;4.55;2.47;;;;;;;;;;5034186;28;20055;-77
2023/04/19 07:39:01;;;;;;;4.72;2.40;;;;;;;;;;5054002;28;20045;-78
2023/04/19 07:41:27;;;;;;;5.10;2.33;;;;;;;;;;5036106;28;20053;-78
2023/04/19 07:43:53;;;;;;;4.72;2.50;;;;;;;;;;5036202;28;20051;-78
2023/04/19 07:46:19;;;;;;;4.85;2.40;;;;;;;;;;5041136;28;20125;-81
2023/04/19 07:48:46;;;;;;;5.95;2.30;;;;;;;;;;5017110;28;20073;-79
2023/04/19 07:51:12;;;;;;;6.18;2.45;;;;;;;;;;5034512;28;20375;-79
2023/04/19 07:53:40;;;;;;;5.57;2.40;;;;;;;;;;5034249;28;20411;-79
2023/04/19 07:56:07;;;;;;;6.47;2.35;;;;;;;;;;5035132;28;20045;-78
2023/04/19 07:58:33;;;;;;;6.50;2.15;;;;;;;;;;5040730;28;20223;-79
2023/04/19 08:01:00;;;;;;;5.35;2.30;;;;;;;;;;5036187;28;20044;-77
2023/04/19 08:03:26;;;;;;;3.50;2.30;;;;;;;;;;5043361;28;20479;-78
2023/04/19 08:05:52;;;;;;;3.90;2.25;;;;;;;;;;4999922;28;20042;-78
2023/04/19 08:08:18;;;;;;;4.22;2.30;;;;;;;;;;5034379;28;20045;-77
2023/04/19 08:10:44;;;;;;;5.28;2.55;;;;;;;;;;5033778;28;20059;-77
2023/04/19 08:13:10;;;;;;;5.80;2.40;;;;;;;;;;5034398;28;20096;-77
2023/04/19 08:15:36;;;;;;;3.72;2.20;;;;;;;;;;5047709;28;20048;-78
2023/04/19 08:18:03;;;;;;;5.10;2.60;;;;;;;;;;5051237;28;20047;-78
2023/04/19 08:20:31;;;;;;;6.18;2.30;;;;;;;;;;5047429;28;20119;-78
2023/04/19 08:22:57;;;;;;;4.55;2.38;;;;;;;;;;5027962;28;20041;-78
2023/04/19 08:25:27;;;;;;;6.80;2.20;;;;;;;;;;5047558;28;20084;-77
2023/04/19 08:27:54;;;;;;;4.30;2.20;;;;;;;;;;5022973;28;20041;-78
2023/04/19 08:30:20;;;;;;;4.25;2.10;;;;;;;;;;5015648;28;20080;-78
2023/04/19 08:32:46;;;;;;;3.92;2.00;;;;;;;;;;5048303;28;20060;-77
2023/04/19 08:35:13;;;;;;;3.10;2.00;;;;;;;;;;5037837;28;20095;-79
2023/04/19 08:37:39;;;;;;;3.80;1.92;;;;;;;;;;5061819;28;20041;-78
2023/04/19 08:40:05;;;;;;;4.75;2.28;;;;;;;;;;5053232;28;20051;-77
2023/04/19 08:42:32;;;;;;;5.18;1.80;;;;;;;;;;5051009;28;20195;-78
2023/04/19 08:45:02;;;;;;;4.65;2.20;;;;;;;;;;5035530;28;20057;-76
2023/04/19 08:47:29;;;;;;;4.68;2.30;;;;;;;;;;5053629;28;20087;-76
2023/04/19 08:49:56;;;;;;;6.65;2.75;;;;;;;;;;5052883;28;20056;-77
2023/04/19 08:52:23;;;;;;;5.03;2.30;;;;;;;;;;5052315;28;21381;-77
2023/04/19 08:54:50;;;;;;;5.82;2.65;;;;;;;;;;5036151;28;20512;-79
2023/04/19 08:57:16;;;;;;;5.43;2.55;;;;;;;;;;5039001;28;20097;-78
2023/04/19 08:59:46;;;;;;;7.30;2.50;;;;;;;;;;5051196;28;20451;-79
2023/04/19 09:02:12;;;;;;;5.20;2.58;;;;;;;;;;5034918;28;20063;-79
2023/04/19 09:04:39;;;;;;;5.35;2.38;;;;;;;;;;5052831;28;20474;-79
2023/04/19 09:07:07;;;;;;;3.80;2.17;;;;;;;;;;5053133;28;20143;-78
2023/04/19 09:09:34;;;;;;;4.95;2.20;;;;;;;;;;5034716;28;20072;-79
2023/04/19 09:12:00;;;;;;;5.65;2.30;;;;;;;;;;5052663;28;20183;-79
2023/04/19 09:14:27;;;;;;;4.22;2.20;;;;;;;;;;5051075;28;20098;-78
2023/04/19 09:16:53;;;;;;;3.80;2.33;;;;;;;;;;5052943;28;20450;-78
2023/04/19 09:19:19;;;;;;;3.65;2.10;;;;;;;;;;5050101;28;20037;-77
2023/04/19 09:21:46;;;;;;;3.45;2.20;;;;;;;;;;5051422;28;20063;-79
2023/04/19 09:24:14;;;;;;;6.00;2.40;;;;;;;;;;5050557;28;20040;-79
2023/04/19 09:26:53;;;;;;;5.32;2.28;;;;;;;;;;5051808;28;20052;-80
2023/04/19 09:29:19;;;;;;;5.47;2.17;;;;;;;;;;5052485;28;20049;-80
2023/04/19 09:31:56;;;;;;;4.55;2.10;;;;;;;;;;5050875;28;20205;-80
2023/04/19 09:34:23;;;;;;;3.88;1.98;;;;;;;;;;5052214;28;20098;-79
2023/04/19 09:36:49;;;;;;;5.47;2.03;;;;;;;;;;5052793;28;20041;-79
2023/04/19 09:39:27;;;;;;;3.40;2.10;;;;;;;;;;5052247;28;20086;-78
2023/04/19 09:41:54;;;;;;;5.53;2.20;;;;;;;;;;5045949;28;20052;-79
2023/04/19 09:44:20;;;;;;;3.40;1.95;;;;;;;;;;5052514;28;20060;-79
2023/04/19 09:46:48;;;;;;;5.80;1.90;;;;;;;;;;5045250;28;20049;-79
2023/04/19 09:49:15;;;;;;;3.42;1.90;;;;;;;;;;5052190;28;20044;-80
2023/04/19 09:51:41;;;;;;;5.30;1.92;;;;;;;;;;5052367;28;20060;-80
2023/04/19 09:54:08;;;;;;;5.80;1.92;;;;;;;;;;5041392;28;20120;-80
2023/04/19 09:56:35;;;;;;;3.53;1.70;;;;;;;;;;5032987;28;20056;-81
2023/04/19 09:59:05;;;;;;;6.32;2.15;;;;;;;;;;5029430;28;20142;-79
2023/04/19 10:01:35;;;;;;;2.67;1.67;;;;;;;;;;5035957;28;20095;-79
2023/04/19 10:04:05;;;;;;;4.05;1.70;;;;;;;;;;5032905;28;20061;-80
2023/04/19 10:06:31;;;;;;;5.80;1.75;;;;;;;;;;5032397;28;20044;-80
2023/04/19 10:08:59;;;;;;;3.38;1.73;;;;;;;;;;5043527;28;20111;-80
2023/04/19 10:11:26;;;;;;;4.70;1.70;;;;;;;;;;5032338;28;20509;-81
2023/04/19 10:13:56;;;;;;;4.45;1.67;;;;;;;;;;5032207;28;20069;-80
2023/04/19 10:16:23;;;;;;;2.65;1.52;;;;;;;;;;5030310;28;20144;-81
2023/04/19 10:18:51;;;;;;;5.60;1.40;;;;;;;;;;5032362;28;20048;-79
2023/04/19 10:21:18;;;;;;;5.13;1.80;;;;;;;;;;5045764;28;20049;-80
2023/04/19 10:23:45;;;;;;;6.30;1.58;;;;;;;;;;5024391;28;20406;-80
2023/04/19 10:26:11;;;;;;;4.78;1.55;;;;;;;;;;5032553;28;20474;-79
2023/04/19 10:28:37;;;;;;;3.63;1.35;;;;;;;;;;5032262;28;20044;-80
2023/04/19 10:31:04;;;;;;;6.32;1.60;;;;;;;;;;5032099;28;20053;-81
2023/04/19 10:33:31;;;;;;;7.00;1.50;;;;;;;;;;5014733;28;20133;-80
2023/04/19 10:35:58;;;;;;;3.80;1.60;;;;;;;;;;5032192;28;20453;-81
2023/04/19 10:38:36;;;;;;;4.65;1.40;;;;;;;;;;5032218;28;20053;-80
2023/04/19 10:41:10;;;;;;;2.33;1.20;;;;;;;;;;5032349;28;20056;-78
2023/04/19 10:43:38;;;;;;;3.42;1.58;;;;;;;;;;5015109;28;20060;-80
2023/04/19 10:46:08;;;;;;;4.82;1.35;;;;;;;;;;5015047;28;20044;-79
2023/04/19 10:48:39;;;;;;;3.38;1.60;;;;;;;;;;5036315;28;20049;-78
2023/04/19 10:51:13;;;;;;;2.95;1.40;;;;;;;;;;5037006;28;20050;-77
2023/04/19 10:53:43;;;;;;;3.78;1.55;;;;;;;;;;5024761;28;20128;-79
2023/04/19 10:56:09;;;;;;;4.38;1.48;;;;;;;;;;5055793;28;20044;-79
2023/04/19 10:58:54;;;;;;;3.58;1.40;;;;;;;;;;5056231;28;20051;-79
2023/04/19 11:01:33;;;;;;;3.20;1.42;;;;;;;;;;5054990;28;20485;-79
2023/04/19 11:04:00;;;;;;;3.13;1.55;;;;;;;;;;5037605;28;20115;-78
2023/04/19 11:06:26;;;;;;;2.95;1.40;;;;;;;;;;5037721;28;20053;-79
2023/04/19 11:08:53;;;;;;;3.60;1.48;;;;;;;;;;5037487;28;20055;-78
2023/04/19 11:11:22;;;;;;;3.47;1.50;;;;;;;;;;5055081;28;20127;-79
2023/04/19 11:13:48;;;;;;;3.60;1.50;;;;;;;;;;5055158;28;20041;-79
2023/04/19 11:16:14;;;;;;;2.67;1.45;;;;;;;;;;5054971;28;20519;-79
2023/04/19 11:18:40;;;;;;;3.13;1.30;;;;;;;;;;5037483;28;20131;-79
2023/04/19 11:21:06;;;;;;;3.72;1.60;;;;;;;;;;5054946;28;20136;-80
2023/04/19 11:23:32;;;;;;;4.40;1.50;;;;;;;;;;5020828;28;20117;-80
2023/04/19 11:25:58;;;;;;;4.68;1.50;;;;;;;;;;5056641;28;20529;-82
2023/04/19 11:28:24;;;;;;;4.00;1.50;;;;;;;;;;5054543;28;20363;-80
2023/04/19 11:30:51;;;;;;;3.55;1.58;;;;;;;;;;5051900;28;20053;-81
2023/04/19 11:33:24;;;;;;;4.65;1.90;;;;;;;;;;5054452;28;20088;-80
2023/04/19 11:35:50;;;;;;;2.78;1.73;;;;;;;;;;5055078;28;20124;-81
2023/04/19 11:38:16;;;;;;;5.47;1.80;;;;;;;;;;5037052;28;20081;-81
2023/04/19 11:40:42;;;;;;;5.03;1.63;;;;;;;;;;5035630;28;20059;-79
2023/04/19 11:43:08;;;;;;;3.58;1.83;;;;;;;;;;5054483;28;20053;-80
2023/04/19 11:45:36;;;;;;;7.88;1.70;;;;;;;;;;5054923;28;20138;-80
2023/04/19 11:48:03;;;;;;;4.43;2.00;;;;;;;;;;5056061;28;20394;-81
2023/04/19 11:50:36;;;;;;;7.78;1.70;;;;;;;;;;5054412;28;20482;-80
2023/04/19 11:53:16;;;;;;;3.15;1.90;;;;;;;;;;5053086;28;20057;-81
2023/04/19 11:55:43;;;;;;;5.57;2.20;;;;;;;;;;5033194;28;20068;-81
2023/04/19 11:58:09;;;;;;;3.95;1.90;;;;;;;;;;5034729;28;20057;-81
2023/04/19 12:00:35;;;;;;;6.68;1.98;;;;;;;;;;5034710;28;20072;-80
2023/04/19 12:03:01;;;;;;;3.85;1.80;;;;;;;;;;5017156;28;20402;-81
2023/04/19 12:05:27;;;;;;;3.45;1.77;;;;;;;;;;5034484;28;20050;-81
2023/04/19 12:08:03;;;;;;;4.15;2.00;;;;;;;;;;5034693;28;20498;-80
2023/04/19 12:10:31;;;;;;;5.10;1.95;;;;;;;;;;5014182;28;20115;-81
2023/04/19 12:12:57;;;;;;;3.47;1.80;;;;;;;;;;4998272;28;20049;-80
2023/04/19 12:15:23;;;;;;;4.68;2.25;;;;;;;;;;5034103;28;20053;-80
2023/04/19 12:17:56;;;;;;;3.58;2.17;;;;;;;;;;5000899;28;20044;-80
2023/04/19 12:20:33;;;;;;;5.00;2.00;;;;;;;;;;5016096;28;20437;-80
2023/04/19 12:22:59;;;;;;;5.18;2.35;;;;;;;;;;5034110;28;20038;-80
2023/04/19 12:25:32;;;;;;;4.15;2.15;;;;;;;;;;5015867;28;20045;-79
2023/04/19 12:27:58;;;;;;;6.07;2.45;;;;;;;;;;5016576;28;20037;-80
2023/04/19 12:30:25;;;;;;;5.32;2.60;;;;;;;;;;5015881;28;20085;-79
2023/04/19 12:32:54;;;;;;;5.53;2.60;;;;;;;;;;5014180;28;20356;-79
2023/04/19 12:35:21;;;;;;;6.25;2.40;;;;;;;;;;4996553;28;20038;-79
2023/04/19 12:37:47;;;;;;;6.35;2.38;;;;;;;;;;5014558;28;20058;-80
2023/04/19 12:40:14;;;;;;;5.97;2.30;;;;;;;;;;5013626;28;20402;-80
2023/04/19 12:42:40;;;;;;;4.45;2.50;;;;;;;;;;4980401;28;20056;-79
2023/04/19 12:45:06;;;;;;;6.93;2.88;;;;;;;;;;5013802;28;20060;-78
2023/04/19 12:47:32;;;;;;;5.85;2.63;;;;;;;;;;4976795;28;20392;-79
2023/04/19 12:49:58;;;;;;;13.63;3.00;;;;;;;;;;4991460;28;20061;-79
2023/04/19 12:52:25;;;;;;;5.28;2.95;;;;;;;;;;4995840;28;20057;-79
2023/04/19 12:54:51;;;;;;;4.38;3.00;;;;;;;;;;5029543;28;20046;-78
2023/04/19 12:57:17;;;;;;;6.45;3.15;;;;;;;;;;5015730;28;20072;-79
2023/04/19 12:59:43;;;;;;;7.85;2.97;;;;;;;;;;5014581;28;20124;-78
2023/04/19 13:02:09;;;;;;;6.40;3.30;;;;;;;;;;5015662;28;20152;-79
2023/04/19 13:04:35;;;;;;;6.95;3.00;;;;;;;;;;5033733;28;20049;-79
2023/04/19 13:07:01;;;;;;;8.00;2.80;;;;;;;;;;5035391;28;20482;-79
2023/04/19 13:09:29;;;;;;;5.78;2.90;;;;;;;;;;5019101;28;20044;-78
2023/04/19 13:11:58;;;;;;;5.30;2.88;;;;;;;;;;5033887;28;20092;-79
2023/04/19 13:14:28;;;;;;;6.47;3.45;;;;;;;;;;5015692;28;20080;-79
2023/04/19 13:16:54;;;;;;;8.93;3.75;;;;;;;;;;5016149;28;20144;-79
2023/04/19 13:19:20;;;;;;;6.72;3.40;;;;;;;;;;5033146;28;20042;-79
2023/04/19 13:21:46;;;;;;;5.95;3.60;;;;;;;;;;5014241;28;20091;-79
2023/04/19 13:24:12;;;;;;;6.13;3.47;;;;;;;;;;5032791;28;20103;-79
2023/04/19 13:26:38;;;;;;;6.95;3.65;;;;;;;;;;5033605;28;20408;-79
2023/04/19 13:29:07;;;;;;;5.65;3.40;;;;;;;;;;5033256;28;20387;-78
2023/04/19 13:31:33;;;;;;;7.63;3.67;;;;;;;;;;5023498;28;20087;-80
2023/04/19 13:33:59;;;;;;;8.20;3.92;;;;;;;;;;5051788;28;20053;-80
2023/04/19 13:36:28;;;;;;;7.78;3.70;;;;;;;;;;5052573;28;20048;-76
2023/04/19 13:38:54;;;;;;;7.38;3.55;;;;;;;;;;5051191;28;20107;-77
2023/04/19 13:41:20;;;;;;;8.45;3.60;;;;;;;;;;5052587;28;20041;-75
2023/04/19 13:43:47;;;;;;;8.55;3.97;;;;;;;;;;5052233;28;20044;-74
2023/04/19 13:46:13;;;;;;;7.75;3.78;;;;;;;;;;5051162;28;20061;-74
2023/04/19 13:48:39;;;;;;;7.40;3.63;;;;;;;;;;5052324;28;20442;-74
2023/04/19 13:51:05;;;;;;;7.97;4.07;;;;;;;;;;5052160;28;20409;-74
2023/04/19 13:53:31;;;;;;;7.93;3.95;;;;;;;;;;5051671;28;20049;-74
2023/04/19 13:55:57;;;;;;;7.15;3.53;;;;;;;;;;5050694;28;20041;-74
2023/04/19 13:58:23;;;;;;;8.25;3.83;;;;;;;;;;5051922;28;20151;-75
2023/04/19 14:00:50;;;;;;;7.05;3.92;;;;;;;;;;5051335;28;20075;-74
2023/04/19 14:03:16;;;;;;;8.68;3.85;;;;;;;;;;5052144;28;20045;-74
2023/04/19 14:05:42;;;;;;;9.10;4.20;;;;;;;;;;5050301;28;20045;-74
2023/04/19 14:08:08;;;;;;;7.00;3.92;;;;;;;;;;5052031;28;20058;-74
2023/04/19 14:10:35;;;;;;;8.88;3.80;;;;;;;;;;5050229;28;20490;-75
2023/04/19 14:13:01;;;;;;;7.30;4.00;;;;;;;;;;5050834;28;20041;-75
2023/04/19 14:15:27;;;;;;;7.80;3.72;;;;;;;;;;5051263;28;20544;-73
2023/04/19 14:17:53;;;;;;;7.40;3.80;;;;;;;;;;5052457;28;20060;-73
2023/04/19 14:20:22;;;;;;;8.10;3.92;;;;;;;;;;5051086;28;20037;-73
2023/04/19 14:22:48;;;;;;;8.70;4.30;;;;;;;;;;5055765;28;20045;-74
2023/04/19 14:25:15;;;;;;;7.65;3.85;;;;;;;;;;5054502;28;20448;-74
2023/04/19 14:27:41;;;;;;;9.77;3.65;;;;;;;;;;5056338;28;20086;-73
2023/04/19 14:30:07;;;;;;;7.50;3.60;;;;;;;;;;5055548;28;20128;-73
2023/04/19 14:32:34;;;;;;;8.43;3.88;;;;;;;;;;5047930;28;20415;-73
2023/04/19 14:35:00;;;;;;;7.63;3.65;;;;;;;;;;5027548;28;20043;-73
2023/04/19 14:37:27;;;;;;;10.05;3.85;;;;;;;;;;5042773;28;20055;-72